Time;durP1;ratioP1;P1;durP2;ratioP2;P2;SDS_P1;SDS_P2;PMS_P1;PMS_P2;Temp;Humidity;BMP_temperature;BMP_pressure;BME280_temperature;BME280_humidity;BME280_pressure;Samples;Min_cycle;Max_cycle;Signal;HPM_P1;HPM_P2
2021/07/06 00:00:25;;;;;;;1.50;1.40;;;14.80;87.10;;;;;;5025615;28;20124;-75
2021/07/06 00:02:51;;;;;;;1.50;1.25;;;14.80;86.10;;;;;;5023046;28;20028;-74
2021/07/06 00:05:18;;;;;;;1.73;1.50;;;14.80;86.30;;;;;;5032209;28;20033;-74
2021/07/06 00:07:46;;;;;;;1.70;1.52;;;14.80;85.50;;;;;;5039973;28;20029;-74
2021/07/06 00:10:13;;;;;;;3.22;1.80;;;14.70;86.70;;;;;;5032366;28;20066;-74
2021/07/06 00:12:39;;;;;;;2.20;1.55;;;14.70;87.10;;;;;;5033784;28;20033;-74
2021/07/06 00:15:07;;;;;;;1.85;1.40;;;14.80;87.50;;;;;;5035190;28;20080;-73
2021/07/06 00:17:33;;;;;;;3.00;1.58;;;14.80;86.90;;;;;;5037180;28;20491;-73
2021/07/06 00:19:59;;;;;;;1.73;1.63;;;14.80;86.30;;;;;;5025369;28;20033;-73
2021/07/06 00:22:24;;;;;;;1.20;1.10;;;14.70;86.60;;;;;;5034344;28;20021;-73
2021/07/06 00:24:50;;;;;;;3.40;1.30;;;14.70;86.50;;;;;;5037094;28;20024;-74
2021/07/06 00:27:16;;;;;;;1.58;1.10;;;14.60;87.30;;;;;;5032299;28;20513;-74
2021/07/06 00:29:41;;;;;;;2.33;1.30;;;14.60;87.40;;;;;;5033499;28;20029;-73
2021/07/06 00:32:08;;;;;;;3.45;1.52;;;14.60;88.00;;;;;;5031798;28;20041;-75
2021/07/06 00:34:34;;;;;;;2.08;1.55;;;14.60;87.60;;;;;;5037531;28;20044;-74
2021/07/06 00:37:00;;;;;;;0.90;0.90;;;14.60;86.80;;;;;;5031663;28;20029;-74
2021/07/06 00:39:26;;;;;;;1.45;1.00;;;14.50;85.10;;;;;;5039635;28;20044;-74
2021/07/06 00:41:51;;;;;;;1.75;1.65;;;14.40;84.50;;;;;;5026490;28;20488;-75
2021/07/06 00:44:20;;;;;;;1.95;1.00;;;14.40;84.50;;;;;;5032756;28;20030;-74
2021/07/06 00:46:46;;;;;;;0.73;0.73;;;14.30;84.90;;;;;;5036740;28;20079;-74
2021/07/06 00:49:12;;;;;;;1.45;0.88;;;14.30;85.10;;;;;;5034220;28;20577;-74
2021/07/06 00:51:38;;;;;;;1.40;1.30;;;14.30;85.00;;;;;;5027569;28;20704;-74
2021/07/06 00:54:04;;;;;;;0.75;0.75;;;14.30;85.60;;;;;;5026358;28;20575;-74
2021/07/06 00:56:31;;;;;;;2.40;1.00;;;14.30;85.90;;;;;;5041282;28;20052;-75
2021/07/06 00:58:57;;;;;;;2.42;1.08;;;14.30;85.90;;;;;;5043407;28;20018;-74
2021/07/06 01:01:22;;;;;;;1.30;1.17;;;14.30;85.60;;;;;;5026914;28;20045;-74
2021/07/06 01:03:48;;;;;;;1.15;1.15;;;14.30;85.90;;;;;;5031140;28;20028;-74
2021/07/06 01:06:15;;;;;;;1.10;1.00;;;14.30;86.30;;;;;;5037166;28;20033;-74
2021/07/06 01:08:45;;;;;;;1.40;1.30;;;14.30;86.10;;;;;;5038534;28;20156;-74
2021/07/06 01:11:12;;;;;;;2.28;1.33;;;14.30;86.10;;;;;;5029919;28;20476;-74
2021/07/06 01:13:38;;;;;;;1.13;1.02;;;14.30;86.60;;;;;;5025000;28;20029;-74
2021/07/06 01:16:04;;;;;;;1.27;1.17;;;14.30;86.00;;;;;;5053885;28;20060;-74
2021/07/06 01:18:29;;;;;;;2.22;1.40;;;14.30;86.50;;;;;;5026189;28;20032;-74
2021/07/06 01:20:56;;;;;;;2.53;1.45;;;14.30;87.00;;;;;;5035201;28;20027;-74
2021/07/06 01:23:31;;;;;;;3.92;1.63;;;14.20;87.20;;;;;;5029295;28;20054;-74
2021/07/06 01:26:05;;;;;;;2.25;1.50;;;14.20;87.50;;;;;;5037136;28;20028;-74
2021/07/06 01:28:32;;;;;;;1.83;1.48;;;14.10;86.80;;;;;;5028946;28;20057;-73
2021/07/06 01:30:58;;;;;;;0.68;0.68;;;14.10;86.30;;;;;;5014291;28;20037;-73
2021/07/06 01:33:27;;;;;;;0.60;0.60;;;14.10;85.70;;;;;;5026735;28;20120;-73
2021/07/06 01:36:00;;;;;;;1.10;1.00;;;14.00;85.50;;;;;;5023336;28;20025;-73
2021/07/06 01:38:27;;;;;;;0.80;0.80;;;13.90;86.00;;;;;;5025422;28;20013;-73
2021/07/06 01:40:53;;;;;;;0.68;0.68;;;13.90;86.40;;;;;;5016230;28;20022;-73
2021/07/06 01:43:19;;;;;;;2.40;0.88;;;13.90;86.50;;;;;;5020296;28;20384;-74
2021/07/06 01:45:46;;;;;;;1.17;1.00;;;14.00;87.50;;;;;;5022876;28;20108;-74
2021/07/06 01:48:12;;;;;;;1.13;1.10;;;14.00;86.50;;;;;;5030547;28;20089;-73
2021/07/06 01:50:40;;;;;;;1.60;1.02;;;13.90;87.00;;;;;;5024809;28;20025;-72
2021/07/06 01:53:11;;;;;;;1.60;1.50;;;13.90;87.90;;;;;;5030445;28;20017;-72
2021/07/06 01:55:45;;;;;;;1.15;1.15;;;13.90;88.80;;;;;;5029234;28;20033;-71
2021/07/06 01:58:16;;;;;;;1.50;1.13;;;13.70;89.20;;;;;;5027042;28;20423;-72
2021/07/06 02:00:50;;;;;;;3.10;1.42;;;13.80;89.10;;;;;;5024990;28;20038;-72
2021/07/06 02:03:15;;;;;;;1.20;1.10;;;13.80;89.40;;;;;;5046463;28;20018;-72
2021/07/06 02:05:44;;;;;;;2.65;0.93;;;13.90;88.40;;;;;;5030430;28;20036;-73
2021/07/06 02:08:12;;;;;;;1.38;1.10;;;13.90;87.90;;;;;;5033231;28;20025;-72
2021/07/06 02:10:40;;;;;;;2.28;1.20;;;13.90;88.10;;;;;;5034136;28;20080;-72
2021/07/06 02:13:14;;;;;;;1.10;1.10;;;13.90;87.40;;;;;;5023601;28;20025;-72
2021/07/06 02:15:41;;;;;;;0.95;0.95;;;13.90;87.80;;;;;;5031525;28;20033;-73
2021/07/06 02:18:21;;;;;;;1.05;1.02;;;13.80;86.30;;;;;;5030424;28;20108;-71
2021/07/06 02:20:51;;;;;;;1.48;1.10;;;13.80;86.10;;;;;;5036110;28;20079;-73
2021/07/06 02:23:17;;;;;;;0.60;0.60;;;13.70;86.40;;;;;;5020679;28;20030;-72
2021/07/06 02:25:45;;;;;;;2.45;0.60;;;13.60;86.80;;;;;;5027217;28;20579;-73
2021/07/06 02:28:11;;;;;;;0.45;0.45;;;13.60;87.00;;;;;;5033347;28;20567;-72
2021/07/06 02:30:37;;;;;;;0.70;0.70;;;13.70;86.60;;;;;;5038191;28;20051;-71
2021/07/06 02:33:03;;;;;;;0.60;0.60;;;13.70;86.80;;;;;;5030943;28;20020;-73
2021/07/06 02:35:29;;;;;;;0.70;0.70;;;13.70;86.60;;;;;;5031445;28;20033;-72
2021/07/06 02:37:56;;;;;;;0.60;0.60;;;13.60;86.60;;;;;;5034837;28;20373;-72
2021/07/06 02:40:23;;;;;;;0.60;0.60;;;13.50;87.50;;;;;;5026583;28;20381;-72
2021/07/06 02:42:49;;;;;;;0.57;0.57;;;13.50;88.00;;;;;;5028215;28;20623;-72
2021/07/06 02:45:16;;;;;;;0.70;0.70;;;13.50;88.50;;;;;;5030146;28;20519;-71
2021/07/06 02:47:42;;;;;;;0.80;0.80;;;13.50;88.80;;;;;;5037376;28;20063;-73
2021/07/06 02:50:10;;;;;;;0.80;0.80;;;13.50;89.40;;;;;;5024942;28;20025;-72
2021/07/06 02:52:35;;;;;;;0.82;0.82;;;13.50;89.20;;;;;;5028021;28;20451;-72
2021/07/06 02:55:03;;;;;;;0.70;0.70;;;13.60;88.90;;;;;;5028610;28;20017;-73
2021/07/06 02:57:35;;;;;;;0.73;0.73;;;13.50;88.30;;;;;;5032056;28;20515;-72
2021/07/06 03:00:22;;;;;;;0.88;0.88;;;13.50;87.90;;;;;;5036105;28;20055;-72
2021/07/06 03:02:51;;;;;;;0.98;0.93;;;13.50;87.80;;;;;;5041227;28;20069;-72
2021/07/06 03:05:20;;;;;;;2.03;0.90;;;13.50;88.50;;;;;;5057372;28;20020;-73
2021/07/06 03:07:46;;;;;;;1.90;0.85;;;13.40;88.50;;;;;;5054614;28;20027;-73
2021/07/06 03:10:15;;;;;;;3.83;0.88;;;13.50;88.70;;;;;;5048459;28;20392;-72
2021/07/06 03:12:41;;;;;;;1.45;0.80;;;13.50;88.10;;;;;;5048584;28;20024;-72
2021/07/06 03:15:09;;;;;;;0.88;0.88;;;13.50;87.80;;;;;;5045113;28;20021;-71
2021/07/06 03:17:35;;;;;;;0.90;0.90;;;13.50;87.80;;;;;;5051611;28;20029;-71
2021/07/06 03:20:02;;;;;;;1.20;1.10;;;13.50;87.70;;;;;;5034453;28;20023;-70
2021/07/06 03:22:29;;;;;;;1.95;1.10;;;13.50;88.30;;;;;;5047603;28;20065;-72
2021/07/06 03:24:55;;;;;;;1.30;1.20;;;13.30;89.20;;;;;;5055026;28;20021;-72
2021/07/06 03:27:21;;;;;;;1.92;1.65;;;13.30;89.80;;;;;;5039959;28;20021;-72
2021/07/06 03:29:46;;;;;;;1.50;1.40;;;13.30;89.90;;;;;;5051804;28;20037;-69
2021/07/06 03:32:12;;;;;;;1.52;1.20;;;13.40;90.20;;;;;;5022870;28;20065;-71
2021/07/06 03:34:39;;;;;;;1.50;1.40;;;13.40;89.80;;;;;;5032092;28;20037;-72
2021/07/06 03:37:07;;;;;;;1.30;1.20;;;13.50;89.10;;;;;;5048574;28;20026;-72
2021/07/06 03:39:35;;;;;;;2.72;1.35;;;13.50;88.80;;;;;;5043099;28;20033;-72
2021/07/06 03:42:01;;;;;;;2.97;1.40;;;13.50;89.20;;;;;;5045207;28;20033;-72
2021/07/06 03:44:27;;;;;;;2.00;1.05;;;13.50;88.70;;;;;;5023063;28;20029;-71
2021/07/06 03:46:52;;;;;;;1.13;1.00;;;13.50;88.40;;;;;;5030296;28;20352;-71
2021/07/06 03:49:18;;;;;;;0.80;0.80;;;13.50;87.00;;;;;;5038740;28;20040;-73
2021/07/06 03:51:44;;;;;;;0.63;0.63;;;13.30;86.50;;;;;;5029576;28;20033;-73
2021/07/06 03:54:09;;;;;;;1.40;1.30;;;13.30;88.40;;;;;;5028513;28;20041;-72
2021/07/06 03:56:35;;;;;;;2.25;1.23;;;13.50;89.90;;;;;;5048907;28;20029;-72
2021/07/06 03:59:01;;;;;;;1.05;1.00;;;13.50;90.10;;;;;;5042249;28;20033;-71
2021/07/06 04:01:27;;;;;;;1.70;1.40;;;13.60;90.30;;;;;;5043066;28;20056;-73
2021/07/06 04:03:52;;;;;;;2.10;1.60;;;13.60;90.50;;;;;;5038568;28;20044;-72
2021/07/06 04:06:18;;;;;;;1.88;1.48;;;13.70;90.60;;;;;;5029760;28;20040;-72
2021/07/06 04:08:44;;;;;;;1.95;1.23;;;13.80;90.40;;;;;;5050430;28;20029;-72
2021/07/06 04:11:09;;;;;;;1.60;0.90;;;13.90;90.20;;;;;;5051189;28;20029;-72
2021/07/06 04:13:35;;;;;;;1.02;1.02;;;14.00;89.70;;;;;;5044036;28;20448;-72
2021/07/06 04:16:01;;;;;;;1.23;1.10;;;14.00;89.70;;;;;;5044011;28;20040;-72
2021/07/06 04:18:27;;;;;;;1.95;0.98;;;14.00;90.00;;;;;;5044438;28;20442;-73
2021/07/06 04:20:52;;;;;;;1.65;1.00;;;13.90;90.20;;;;;;5048992;28;20032;-72
2021/07/06 04:23:18;;;;;;;2.15;1.20;;;14.00;90.30;;;;;;5045977;28;20079;-72
2021/07/06 04:25:44;;;;;;;1.20;1.10;;;14.10;90.50;;;;;;5047775;28;20090;-72
2021/07/06 04:28:09;;;;;;;6.35;1.20;;;14.20;90.70;;;;;;5038300;28;20672;-72
2021/07/06 04:30:35;;;;;;;2.88;1.25;;;14.30;90.80;;;;;;5043085;28;20051;-72
2021/07/06 04:33:01;;;;;;;1.55;1.40;;;14.30;90.70;;;;;;5048871;28;20090;-72
2021/07/06 04:35:27;;;;;;;1.33;1.23;;;14.40;90.60;;;;;;5047883;28;20049;-72
2021/07/06 04:37:52;;;;;;;5.95;1.38;;;14.40;90.50;;;;;;5045502;28;20085;-71
2021/07/06 04:40:18;;;;;;;2.53;1.40;;;14.40;90.60;;;;;;5051700;28;20454;-72
2021/07/06 04:42:44;;;;;;;1.40;1.30;;;14.50;90.50;;;;;;5046703;28;20476;-71
2021/07/06 04:45:12;;;;;;;1.77;1.30;;;14.70;90.90;;;;;;5043126;28;20029;-72
2021/07/06 04:47:38;;;;;;;2.00;1.52;;;14.80;90.80;;;;;;5030710;28;20016;-73
2021/07/06 04:50:08;;;;;;;1.55;1.45;;;14.80;90.80;;;;;;5045653;28;20021;-72
2021/07/06 04:52:34;;;;;;;3.00;1.30;;;14.90;91.00;;;;;;5048211;28;20096;-73
2021/07/06 04:55:00;;;;;;;2.33;1.65;;;15.00;91.10;;;;;;5052109;28;20112;-73
2021/07/06 04:57:25;;;;;;;1.52;1.42;;;15.20;91.30;;;;;;5053585;28;20032;-72
2021/07/06 04:59:51;;;;;;;2.85;1.35;;;15.20;91.10;;;;;;5050035;28;20036;-72
2021/07/06 05:02:17;;;;;;;2.13;1.90;;;15.40;91.00;;;;;;5047260;28;20516;-73
2021/07/06 05:04:43;;;;;;;1.80;1.60;;;15.50;90.80;;;;;;5046462;28;20031;-73
2021/07/06 05:07:09;;;;;;;2.72;1.80;;;15.60;91.00;;;;;;5053814;28;20064;-72
2021/07/06 05:09:35;;;;;;;3.38;2.05;;;15.70;91.00;;;;;;5051233;28;20020;-71
2021/07/06 05:12:02;;;;;;;1.75;1.65;;;15.80;91.10;;;;;;5044658;28;20037;-71
2021/07/06 05:14:29;;;;;;;2.10;1.70;;;16.00;91.30;;;;;;5044692;28;20053;-72
2021/07/06 05:16:55;;;;;;;2.58;1.83;;;16.20;91.20;;;;;;5052170;28;20116;-72
2021/07/06 05:19:21;;;;;;;1.80;1.70;;;16.30;91.40;;;;;;5039737;28;20112;-71
2021/07/06 05:21:47;;;;;;;1.75;1.65;;;16.40;91.20;;;;;;5049177;28;20028;-73
2021/07/06 05:24:12;;;;;;;2.17;1.60;;;16.60;91.30;;;;;;5050488;28;20040;-73
2021/07/06 05:26:41;;;;;;;1.50;1.40;;;16.70;90.90;;;;;;5033092;28;20121;-73
2021/07/06 05:29:06;;;;;;;;;;;16.80;90.80;;;;;;5040450;28;20032;-72
2021/07/06 05:31:32;;;;;;;1.42;1.33;;;17.00;90.00;;;;;;5023660;28;19913;-72
2021/07/06 05:34:02;;;;;;;2.45;1.30;;;17.20;88.00;;;;;;5015008;28;20036;-72
2021/07/06 05:36:31;;;;;;;1.30;1.20;;;17.30;87.10;;;;;;5013266;28;20028;-72
2021/07/06 05:38:58;;;;;;;1.65;1.17;;;17.40;85.70;;;;;;5020833;28;20029;-73
2021/07/06 05:41:25;;;;;;;1.70;1.20;;;17.50;85.60;;;;;;5009304;28;20036;-73
2021/07/06 05:43:54;;;;;;;3.60;2.17;;;17.60;84.10;;;;;;5035738;28;20074;-74
2021/07/06 05:46:20;;;;;;;2.75;1.58;;;17.60;83.00;;;;;;4999228;28;20284;-74
2021/07/06 05:48:48;;;;;;;3.13;1.40;;;17.70;82.60;;;;;;5011800;28;20096;-74
2021/07/06 05:51:14;;;;;;;3.10;1.45;;;17.80;82.30;;;;;;5041469;28;20024;-72
2021/07/06 05:53:41;;;;;;;1.30;1.20;;;17.80;82.70;;;;;;5010733;28;20128;-73
2021/07/06 05:56:07;;;;;;;3.43;1.57;;;18.00;80.80;;;;;;5001104;28;20058;-73
2021/07/06 05:58:33;;;;;;;1.58;1.30;;;18.00;81.50;;;;;;5006759;28;20057;-72
2021/07/06 06:00:59;;;;;;;2.42;1.48;;;18.20;81.30;;;;;;5009695;28;20052;-73
2021/07/06 06:03:25;;;;;;;1.65;1.17;;;18.30;82.80;;;;;;5004291;28;20026;-73
2021/07/06 06:05:52;;;;;;;2.35;1.13;;;18.50;81.20;;;;;;5015057;28;20038;-73
2021/07/06 06:08:17;;;;;;;1.75;1.20;;;18.60;80.50;;;;;;5012266;28;20037;-73
2021/07/06 06:10:43;;;;;;;1.30;1.20;;;18.80;80.80;;;;;;5039151;28;20101;-73
2021/07/06 06:13:09;;;;;;;1.33;1.15;;;18.80;79.10;;;;;;5008760;28;20029;-73
2021/07/06 06:15:34;;;;;;;2.55;1.33;;;19.00;80.20;;;;;;5016208;28;20088;-73
2021/07/06 06:18:00;;;;;;;2.35;1.40;;;19.10;80.50;;;;;;4998892;28;20040;-73
2021/07/06 06:20:26;;;;;;;1.35;1.25;;;19.20;80.80;;;;;;5007855;28;20049;-72
2021/07/06 06:22:52;;;;;;;1.40;1.20;;;19.30;80.40;;;;;;5017986;28;20502;-73
2021/07/06 06:25:18;;;;;;;1.48;1.25;;;19.40;80.10;;;;;;5001565;28;20033;-72
2021/07/06 06:27:44;;;;;;;1.88;1.40;;;19.50;79.50;;;;;;5021204;28;20400;-72
2021/07/06 06:30:11;;;;;;;1.13;1.02;;;19.50;78.10;;;;;;5015859;28;20030;-73
2021/07/06 06:32:38;;;;;;;1.50;1.30;;;19.50;77.70;;;;;;5028441;28;20512;-73
2021/07/06 06:35:04;;;;;;;1.70;1.10;;;19.50;77.70;;;;;;5024600;28;20033;-72
2021/07/06 06:37:30;;;;;;;2.33;1.27;;;19.70;79.10;;;;;;5017139;28;20774;-73
2021/07/06 06:39:58;;;;;;;1.52;1.13;;;19.70;77.20;;;;;;5007263;28;20120;-73
2021/07/06 06:42:24;;;;;;;3.08;1.20;;;19.80;78.10;;;;;;5019482;28;20037;-73
2021/07/06 06:44:52;;;;;;;1.95;1.05;;;19.90;77.90;;;;;;5020155;28;20429;-73
2021/07/06 06:47:18;;;;;;;0.93;0.90;;;20.00;76.50;;;;;;5028083;28;20057;-73
2021/07/06 06:49:45;;;;;;;1.30;1.25;;;20.10;77.20;;;;;;5003440;28;20033;-73
2021/07/06 06:52:11;;;;;;;1.10;1.10;;;20.30;77.80;;;;;;5008838;28;20602;-73
2021/07/06 06:54:39;;;;;;;2.40;1.27;;;20.50;79.20;;;;;;5025027;28;20036;-73
2021/07/06 06:57:07;;;;;;;1.38;1.10;;;20.70;76.50;;;;;;5022188;28;20503;-72
2021/07/06 06:59:33;;;;;;;2.78;1.25;;;20.80;76.90;;;;;;5005212;28;20036;-73
2021/07/06 07:02:18;;;;;;;1.40;1.30;;;20.90;76.80;;;;;;5009133;28;20030;-73
2021/07/06 07:04:45;;;;;;;3.33;1.10;;;21.00;74.90;;;;;;5002898;28;20118;-73
2021/07/06 07:07:11;;;;;;;1.15;0.75;;;21.10;73.80;;;;;;5010199;28;20026;-73
2021/07/06 07:09:37;;;;;;;0.82;0.82;;;21.20;72.70;;;;;;5007779;28;20033;-73
2021/07/06 07:12:05;;;;;;;2.15;1.02;;;21.30;73.80;;;;;;5005540;28;20041;-74
2021/07/06 07:14:37;;;;;;;1.35;1.00;;;21.50;73.70;;;;;;5001236;28;20437;-72
2021/07/06 07:17:04;;;;;;;1.10;1.00;;;21.60;74.20;;;;;;5033623;28;20053;-73
2021/07/06 07:19:33;;;;;;;2.38;1.20;;;21.70;72.60;;;;;;5014896;28;20037;-73
2021/07/06 07:22:00;;;;;;;1.42;1.02;;;21.80;71.50;;;;;;5008044;28;20039;-73
2021/07/06 07:24:25;;;;;;;1.10;1.10;;;21.80;71.20;;;;;;5006321;28;20046;-73
2021/07/06 07:26:51;;;;;;;1.98;1.02;;;22.00;71.30;;;;;;5013521;28;20111;-73
2021/07/06 07:29:18;;;;;;;0.90;0.88;;;22.10;71.20;;;;;;5007059;28;20033;-73
2021/07/06 07:31:44;;;;;;;1.25;0.82;;;22.20;71.40;;;;;;5006429;28;20063;-73
2021/07/06 07:34:10;;;;;;;1.17;1.08;;;22.20;70.50;;;;;;5004364;28;20045;-74
2021/07/06 07:36:38;;;;;;;0.93;0.93;;;22.40;70.30;;;;;;5019747;28;20466;-73
2021/07/06 07:39:04;;;;;;;0.88;0.88;;;22.50;69.30;;;;;;5015709;28;20032;-73
2021/07/06 07:41:30;;;;;;;0.82;0.82;;;22.60;69.30;;;;;;5017177;28;20638;-73
2021/07/06 07:43:56;;;;;;;0.70;0.70;;;22.70;69.20;;;;;;5027626;28;20109;-73
2021/07/06 07:46:24;;;;;;;1.45;0.77;;;22.80;67.00;;;;;;5019780;28;20042;-73
2021/07/06 07:48:50;;;;;;;0.95;0.82;;;22.90;69.30;;;;;;5011788;28;20037;-74
2021/07/06 07:51:16;;;;;;;1.08;0.90;;;23.00;68.60;;;;;;5014067;28;20068;-73
2021/07/06 07:53:43;;;;;;;0.90;0.90;;;23.00;68.80;;;;;;5014051;28;20049;-73
2021/07/06 07:56:13;;;;;;;1.03;0.80;;;23.30;65.20;;;;;;5013537;28;20029;-73
2021/07/06 07:58:40;;;;;;;1.67;0.73;;;23.30;65.70;;;;;;5017884;28;20025;-74
2021/07/06 08:01:06;;;;;;;1.23;0.80;;;23.40;66.70;;;;;;5014934;28;20068;-73
2021/07/06 08:03:32;;;;;;;1.50;0.90;;;23.50;65.20;;;;;;5017656;28;20029;-73
2021/07/06 08:05:59;;;;;;;0.80;0.80;;;23.50;65.90;;;;;;5019493;28;20062;-73
2021/07/06 08:08:25;;;;;;;0.88;0.77;;;23.60;63.30;;;;;;5019630;28;20021;-73
2021/07/06 08:10:54;;;;;;;0.70;0.70;;;23.70;64.20;;;;;;5022653;28;20040;-73
2021/07/06 08:13:24;;;;;;;1.05;0.95;;;23.70;62.50;;;;;;5012392;28;20513;-73
2021/07/06 08:15:51;;;;;;;0.90;0.90;;;23.80;63.70;;;;;;5038485;28;20037;-73
2021/07/06 08:18:18;;;;;;;1.10;1.00;;;23.90;62.00;;;;;;5018915;28;20236;-74
2021/07/06 08:20:44;;;;;;;1.20;0.80;;;23.90;63.80;;;;;;5035902;28;20033;-73
2021/07/06 08:23:10;;;;;;;1.33;1.23;;;24.00;62.60;;;;;;5020891;28;20048;-72
2021/07/06 08:25:36;;;;;;;1.48;0.93;;;24.10;64.00;;;;;;5015781;28;20017;-73
2021/07/06 08:28:02;;;;;;;0.90;0.90;;;24.10;63.50;;;;;;5018693;28;20026;-73
2021/07/06 08:30:27;;;;;;;0.80;0.80;;;24.30;63.70;;;;;;5040673;28;20507;-73
2021/07/06 08:32:53;;;;;;;0.73;0.73;;;24.50;65.40;;;;;;5015559;28;20036;-73
2021/07/06 08:35:20;;;;;;;0.90;0.90;;;24.60;62.60;;;;;;5043442;28;20033;-73
2021/07/06 08:37:46;;;;;;;0.82;0.80;;;24.60;61.80;;;;;;5037598;28;20028;-73
2021/07/06 08:40:12;;;;;;;0.90;0.90;;;24.70;60.10;;;;;;5022077;28;20381;-74
2021/07/06 08:42:39;;;;;;;0.70;0.70;;;24.80;61.80;;;;;;5016952;28;20055;-73
2021/07/06 08:45:13;;;;;;;0.68;0.68;;;24.80;58.90;;;;;;5018760;28;20116;-75
2021/07/06 08:47:47;;;;;;;0.80;0.77;;;24.80;59.70;;;;;;5017580;28;20052;-74
2021/07/06 08:50:13;;;;;;;0.80;0.80;;;25.00;59.80;;;;;;5025353;28;20063;-74
2021/07/06 08:52:44;;;;;;;0.60;0.60;;;25.10;59.00;;;;;;5018593;28;20049;-73
2021/07/06 08:55:15;;;;;;;1.00;0.90;;;25.00;57.40;;;;;;5030404;28;20029;-74
2021/07/06 08:57:43;;;;;;;0.70;0.70;;;25.10;58.10;;;;;;5054074;28;20036;-74
2021/07/06 09:00:15;;;;;;;1.10;0.80;;;25.20;57.10;;;;;;5025518;28;20021;-73
2021/07/06 09:02:41;;;;;;;0.85;0.80;;;25.20;57.80;;;;;;5018079;28;20034;-73
2021/07/06 09:05:19;;;;;;;0.75;0.75;;;25.20;57.30;;;;;;5035861;28;20543;-72
2021/07/06 09:07:45;;;;;;;2.58;0.90;;;25.30;58.70;;;;;;5041155;28;20059;-73
2021/07/06 09:10:16;;;;;;;0.93;0.70;;;25.40;56.90;;;;;;5038437;28;20800;-74
2021/07/06 09:12:44;;;;;;;1.60;0.80;;;25.50;58.00;;;;;;5019438;28;20078;-74
2021/07/06 09:15:23;;;;;;;1.42;0.85;;;25.60;56.70;;;;;;5024374;28;20061;-73
2021/07/06 09:18:15;;;;;;;1.50;1.30;;;25.60;58.50;;;;;;5038222;28;20029;-74
2021/07/06 09:20:44;;;;;;;18.45;1.70;;;25.70;56.80;;;;;;5038340;28;20026;-75
2021/07/06 09:23:23;;;;;;;0.90;0.90;;;25.90;59.80;;;;;;5015627;28;20029;-74
2021/07/06 09:26:04;;;;;;;0.80;0.80;;;25.90;55.10;;;;;;5035101;28;20034;-73
2021/07/06 09:28:34;;;;;;;1.02;0.93;;;26.00;55.10;;;;;;5049307;28;20042;-74
2021/07/06 09:31:32;;;;;;;1.13;1.00;;;26.20;56.50;;;;;;5020121;28;20505;-74
2021/07/06 09:34:02;;;;;;;2.35;0.90;;;26.40;59.70;;;;;;5025722;28;20037;-74
2021/07/06 09:36:31;;;;;;;2.22;1.02;;;26.60;55.50;;;;;;5017221;28;20128;-75
2021/07/06 09:39:19;;;;;;;0.85;0.85;;;26.60;56.50;;;;;;5011309;28;20025;-73
2021/07/06 09:42:01;;;;;;;1.08;1.00;;;26.60;58.30;;;;;;5031111;28;20017;-74
2021/07/06 09:44:35;;;;;;;2.85;1.20;;;26.70;56.40;;;;;;5027461;28;20025;-73
2021/07/06 09:47:10;;;;;;;0.80;0.80;;;26.80;57.60;;;;;;5020073;28;20033;-73
2021/07/06 09:49:56;;;;;;;3.50;1.10;;;27.00;53.50;;;;;;5013344;28;20032;-74
2021/07/06 09:52:23;;;;;;;0.98;0.95;;;27.00;55.50;;;;;;5014023;28;21740;-74
2021/07/06 09:54:54;;;;;;;0.95;0.90;;;27.10;57.40;;;;;;5018104;28;20025;-74
2021/07/06 09:57:27;;;;;;;0.98;0.90;;;27.20;55.10;;;;;;5009699;28;20034;-74
2021/07/06 10:00:12;;;;;;;1.10;0.82;;;27.30;53.90;;;;;;5030943;28;20365;-74
2021/07/06 10:02:41;;;;;;;0.80;0.80;;;27.30;53.30;;;;;;5035544;28;20048;-74
2021/07/06 10:05:10;;;;;;;0.90;0.90;;;27.40;57.50;;;;;;5037601;28;20032;-74
2021/07/06 10:07:39;;;;;;;1.48;0.70;;;27.40;53.40;;;;;;5036635;28;20029;-74
2021/07/06 10:10:11;;;;;;;0.73;0.70;;;27.40;54.50;;;;;;5043555;28;20562;-74
2021/07/06 10:12:39;;;;;;;0.98;0.95;;;27.40;51.60;;;;;;5052634;28;20495;-73
2021/07/06 10:15:11;;;;;;;1.05;1.05;;;27.30;53.50;;;;;;5043634;28;20046;-75
2021/07/06 10:17:38;;;;;;;0.93;0.90;;;27.40;52.10;;;;;;5059302;28;20242;-74
2021/07/06 10:20:08;;;;;;;;;;;27.40;51.60;;;;;;5058386;28;20526;-74
2021/07/06 10:22:34;;;;;;;1.50;1.25;;;27.50;50.90;;;;;;5058274;28;19916;-75
2021/07/06 10:25:01;;;;;;;1.92;0.90;;;27.60;52.80;;;;;;5050238;28;20457;-74
2021/07/06 10:27:32;;;;;;;0.85;0.85;;;27.60;50.60;;;;;;5044348;28;20100;-74
2021/07/06 10:30:15;;;;;;;1.60;1.00;;;27.70;51.40;;;;;;5042322;28;20021;-74
2021/07/06 10:32:56;;;;;;;0.90;0.90;;;27.80;52.10;;;;;;5039522;28;20120;-74
2021/07/06 10:35:37;;;;;;;0.90;0.90;;;28.00;50.80;;;;;;5037614;28;20036;-73
2021/07/06 10:38:28;;;;;;;1.10;1.00;;;28.00;48.70;;;;;;5053877;28;20033;-74
2021/07/06 10:41:01;;;;;;;0.77;0.77;;;28.00;50.80;;;;;;5041138;28;20025;-75
2021/07/06 10:43:30;;;;;;;0.90;0.90;;;28.20;51.00;;;;;;5043985;28;20028;-74
2021/07/06 10:46:14;;;;;;;1.58;1.13;;;28.20;50.30;;;;;;5030671;28;20025;-75
2021/07/06 10:48:44;;;;;;;1.00;1.00;;;28.20;52.20;;;;;;5023758;28;20492;-74
2021/07/06 10:51:33;;;;;;;1.13;0.85;;;28.30;55.40;;;;;;5050144;28;20166;-74
2021/07/06 10:54:06;;;;;;;1.10;1.00;;;28.10;53.60;;;;;;5043341;28;20108;-74
2021/07/06 10:56:36;;;;;;;0.90;0.90;;;28.10;53.00;;;;;;5043327;28;20036;-74
2021/07/06 10:59:05;;;;;;;1.48;1.00;;;27.90;54.40;;;;;;5044041;28;20695;-76
2021/07/06 11:01:37;;;;;;;0.80;0.80;;;28.00;56.80;;;;;;5013646;28;20037;-73
2021/07/06 11:04:08;;;;;;;0.82;0.80;;;28.10;52.40;;;;;;5012965;28;20018;-74
2021/07/06 11:06:46;;;;;;;1.05;1.02;;;28.00;52.00;;;;;;5029479;28;20039;-73
2021/07/06 11:09:38;;;;;;;1.75;1.05;;;28.00;51.60;;;;;;5014440;28;20041;-74
2021/07/06 11:12:29;;;;;;;2.13;1.00;;;28.10;52.80;;;;;;4994221;28;20038;-73
2021/07/06 11:14:58;;;;;;;1.15;1.10;;;28.10;53.00;;;;;;5031021;28;20034;-72
2021/07/06 11:17:38;;;;;;;2.35;0.93;;;28.10;53.60;;;;;;4996045;28;20022;-74
2021/07/06 11:20:05;;;;;;;0.90;0.90;;;28.20;52.40;;;;;;5027637;28;20105;-73
2021/07/06 11:22:48;;;;;;;1.35;1.05;;;28.10;51.50;;;;;;5013110;28;20427;-73
2021/07/06 11:25:21;;;;;;;0.98;0.80;;;28.10;52.30;;;;;;5009481;28;20034;-73
2021/07/06 11:28:01;;;;;;;0.85;0.85;;;28.10;51.30;;;;;;5017637;28;20393;-73
2021/07/06 11:30:40;;;;;;;3.30;0.98;;;28.10;51.30;;;;;;5016180;28;20034;-73
2021/07/06 11:33:07;;;;;;;0.90;0.90;;;28.10;50.20;;;;;;4999487;28;20025;-74
2021/07/06 11:35:36;;;;;;;0.90;0.90;;;28.20;50.50;;;;;;5000865;28;20116;-72
2021/07/06 11:38:08;;;;;;;1.92;0.90;;;28.30;51.40;;;;;;4997989;28;20120;-73
2021/07/06 11:40:35;;;;;;;1.13;1.02;;;28.30;51.40;;;;;;5013638;28;20036;-74
2021/07/06 11:43:02;;;;;;;0.85;0.85;;;28.40;51.90;;;;;;5011448;28;20041;-74
2021/07/06 11:45:27;;;;;;;0.77;0.77;;;28.40;48.20;;;;;;5015663;28;20033;-74
2021/07/06 11:48:14;;;;;;;2.88;0.80;;;28.30;47.90;;;;;;4996463;28;20033;-74
2021/07/06 11:50:42;;;;;;;2.60;1.02;;;28.20;45.60;;;;;;5033242;28;20061;-73
2021/07/06 11:53:09;;;;;;;0.80;0.80;;;28.20;49.50;;;;;;5012682;28;20044;-74
2021/07/06 11:55:37;;;;;;;1.42;1.02;;;28.20;50.70;;;;;;5026110;28;20029;-72
2021/07/06 11:58:05;;;;;;;2.22;0.90;;;28.10;48.50;;;;;;5003983;28;20098;-74
2021/07/06 12:00:33;;;;;;;1.20;1.10;;;28.00;54.00;;;;;;4995187;28;20022;-74
2021/07/06 12:03:15;;;;;;;0.80;0.80;;;28.00;51.80;;;;;;4995190;28;20026;-74
2021/07/06 12:05:41;;;;;;;1.00;1.00;;;27.90;53.90;;;;;;4992736;28;20033;-74
2021/07/06 12:08:35;;;;;;;0.80;0.80;;;27.90;51.00;;;;;;5013565;28;20067;-75
2021/07/06 12:11:15;;;;;;;1.10;0.90;;;27.90;52.60;;;;;;4994004;28;20034;-74
2021/07/06 12:13:40;;;;;;;0.90;0.90;;;27.90;49.10;;;;;;5002421;28;20027;-74
2021/07/06 12:16:20;;;;;;;0.85;0.85;;;28.00;50.40;;;;;;5026845;28;20104;-75
2021/07/06 12:18:56;;;;;;;1.58;0.70;;;28.10;53.10;;;;;;5026350;28;20032;-74
2021/07/06 12:21:36;;;;;;;0.93;0.80;;;28.10;52.70;;;;;;5000610;28;20022;-75
2021/07/06 12:24:27;;;;;;;0.95;0.80;;;28.20;48.80;;;;;;4997246;28;20037;-74
2021/07/06 12:26:55;;;;;;;0.82;0.82;;;28.00;49.70;;;;;;5012828;28;20125;-75
2021/07/06 12:29:32;;;;;;;1.10;0.90;;;27.80;51.80;;;;;;5005109;28;20105;-74
2021/07/06 12:31:58;;;;;;;0.90;0.90;;;27.70;51.30;;;;;;5012141;28;20045;-73
2021/07/06 12:34:43;;;;;;;0.95;0.93;;;27.90;52.80;;;;;;4996022;28;20037;-75
2021/07/06 12:37:12;;;;;;;1.88;1.10;;;27.80;52.40;;;;;;5047873;28;20108;-74
2021/07/06 12:39:41;;;;;;;1.48;0.95;;;27.80;53.60;;;;;;5005820;28;20021;-75
2021/07/06 12:42:20;;;;;;;1.52;0.82;;;27.90;52.10;;;;;;5016441;28;20053;-75
2021/07/06 12:44:51;;;;;;;0.85;0.85;;;28.00;51.60;;;;;;5000526;28;20124;-74
2021/07/06 12:47:23;;;;;;;1.30;1.20;;;28.10;53.90;;;;;;4999765;28;20435;-75
2021/07/06 12:50:19;;;;;;;3.53;1.13;;;28.10;53.30;;;;;;5002319;28;20025;-75
2021/07/06 12:52:58;;;;;;;1.23;1.10;;;28.00;51.90;;;;;;5011999;28;20052;-75
2021/07/06 12:55:26;;;;;;;1.00;1.00;;;27.80;52.10;;;;;;5009973;28;20281;-74
2021/07/06 12:57:54;;;;;;;1.60;0.98;;;27.70;54.60;;;;;;4997675;28;20060;-74